La Sarre, Canada
Current Conditions -  °F | °C
As of 7:00 AM on Thursday 27 Nov 2014 (Local Time) from CYUY Reporting Station
Light Snow Light Snow  
Wind Chill: -17°   Ceiling: 8000
Heat Index: -12°   Visibility: 12mi
Dew Point: -13°   Wind: 6mph
Humidity: 92%   Direction: 40°NE
Pressure: 30.13"   Gusts: NA
Location:  48.8°N, 79.2°W
Report Text: CYUY 271200Z 04005KT 12SM -SN BKN080 M12/M13 A3013 RMK AC7 SLP230
Loading
Personal Weather Stations






























Interactive Weather Map New forecast layout! Learn more

10-Day Weather Forecast

Advertisements
Track Severe Weather on mobile